TimeEDT,TemperatureF,Dew PointF,Humidity,Sea Level PressureIn,VisibilityMPH,Wind Direction,Wind SpeedMPH,Gust SpeedMPH,PrecipitationIn,Events,Conditions,WindDirDegrees,DateUTC
12:15 AM,70.7,68.5,93,29.88,10.0,SSE,4.6,-,0.01,Rain,Light Rain,150,2013-07-01 04:15:00
12:35 AM,70.7,68.4,92,29.89,10.0,South,4.6,-,0.01,Rain,Light Rain,170,2013-07-01 04:35:00
12:55 AM,70.3,68.4,93,29.88,10.0,SSE,4.6,-,0.01,,Mostly Cloudy,150,2013-07-01 04:55:00
1:15 AM,70.2,68.2,93,29.88,10.0,SSE,3.5,-,N/A,,Mostly Cloudy,150,2013-07-01 05:15:00
1:35 AM,70.0,68.0,93,29.89,10.0,South,4.6,-,N/A,,Scattered Clouds,170,2013-07-01 05:35:00
1:55 AM,69.8,67.8,93,29.89,10.0,SSE,4.6,-,N/A,,Scattered Clouds,150,2013-07-01 05:55:00
2:15 AM,69.8,68.0,94,29.88,10.0,South,3.5,-,N/A,,Mostly Cloudy,180,2013-07-01 06:15:00
2:35 AM,69.8,68.0,94,29.87,10.0,South,4.6,-,N/A,,Mostly Cloudy,180,2013-07-01 06:35:00
2:55 AM,70.2,68.4,94,29.87,10.0,South,4.6,-,N/A,,Mostly Cloudy,170,2013-07-01 06:55:00
3:15 AM,70.3,68.5,94,29.87,10.0,South,4.6,-,N/A,,Overcast,190,2013-07-01 07:15:00
3:35 AM,70.5,68.9,95,29.87,7.0,SSW,3.5,-,N/A,,Mostly Cloudy,210,2013-07-01 07:35:00
3:55 AM,70.7,69.1,95,29.87,10.0,SSW,3.5,-,N/A,,Overcast,200,2013-07-01 07:55:00
4:15 AM,70.7,69.1,95,29.87,10.0,Calm,Calm,-,N/A,,Overcast,0,2013-07-01 08:15:00
4:35 AM,70.9,69.1,94,29.87,10.0,SSE,4.6,-,N/A,,Overcast,150,2013-07-01 08:35:00
4:55 AM,70.9,69.1,94,29.88,4.0,South,3.5,-,N/A,,Overcast,180,2013-07-01 08:55:00
5:15 AM,71.1,69.4,95,29.89,3.0,South,4.6,-,N/A,,Overcast,180,2013-07-01 09:15:00
5:35 AM,71.1,69.6,95,29.89,2.5,SSE,3.5,-,N/A,,Overcast,160,2013-07-01 09:35:00
5:55 AM,71.2,69.8,95,29.90,4.0,SSE,3.5,-,N/A,,Overcast,160,2013-07-01 09:55:00
6:15 AM,71.2,69.6,95,29.90,5.0,South,3.5,-,N/A,,Overcast,170,2013-07-01 10:15:00
6:35 AM,71.4,69.8,95,29.91,5.0,SSE,4.6,-,N/A,,Overcast,160,2013-07-01 10:35:00
6:55 AM,71.6,69.8,94,29.91,7.0,South,4.6,-,N/A,,Overcast,170,2013-07-01 10:55:00
7:15 AM,72.0,70.2,94,29.91,7.0,SSE,4.6,-,N/A,,Overcast,150,2013-07-01 11:15:00
7:35 AM,72.7,70.5,93,29.91,10.0,SSE,3.5,-,N/A,,Overcast,160,2013-07-01 11:35:00
7:55 AM,72.5,70.2,92,29.93,7.0,SSW,5.8,-,N/A,Rain,Light Rain,210,2013-07-01 11:55:00
8:15 AM,72.1,70.2,93,29.92,2.5,Calm,Calm,-,0.10,Rain,Heavy Rain,0,2013-07-01 12:15:00
8:35 AM,71.4,69.4,93,29.95,1.5,SSE,16.1,25.3,0.34,Rain,Heavy Rain,150,2013-07-01 12:35:00
8:55 AM,69.8,67.3,92,29.92,7.0,South,8.1,-,0.42,Rain,Rain,170,2013-07-01 12:55:00
9:15 AM,69.3,67.3,93,29.94,7.0,South,6.9,-,0.03,Rain,Rain,170,2013-07-01 13:15:00
9:35 AM,69.3,67.1,93,29.95,10.0,South,4.6,-,0.04,,Mostly Cloudy,180,2013-07-01 13:35:00
9:55 AM,70.2,67.6,92,29.95,10.0,South,5.8,-,0.04,,Mostly Cloudy,190,2013-07-01 13:55:00
10:15 AM,72.0,68.5,89,29.95,10.0,SSW,6.9,-,N/A,,Scattered Clouds,210,2013-07-01 14:15:00
10:35 AM,73.0,69.3,88,29.95,10.0,SSW,6.9,-,N/A,,Clear,210,2013-07-01 14:35:00
10:55 AM,75.9,70.2,82,29.95,10.0,SSW,9.2,-,N/A,,Clear,210,2013-07-01 14:55:00
11:15 AM,76.8,69.6,78,29.95,10.0,South,9.2,-,N/A,,Scattered Clouds,180,2013-07-01 15:15:00
11:35 AM,76.8,69.3,77,29.94,10.0,South,8.1,-,N/A,,Mostly Cloudy,170,2013-07-01 15:35:00
11:55 AM,77.4,69.3,76,29.94,10.0,South,9.2,-,N/A,,Overcast,180,2013-07-01 15:55:00
12:15 PM,77.7,69.6,76,29.94,10.0,SSW,8.1,-,N/A,,Overcast,210,2013-07-01 16:15:00
12:35 PM,78.1,69.6,75,29.94,10.0,SSW,8.1,-,N/A,,Overcast,200,2013-07-01 16:35:00
12:55 PM,79.3,69.4,72,29.95,10.0,SW,9.2,-,N/A,,Overcast,220,2013-07-01 16:55:00
1:15 PM,79.0,69.3,72,29.95,10.0,SSW,8.1,-,N/A,,Mostly Cloudy,200,2013-07-01 17:15:00
1:35 PM,79.2,70.0,73,29.95,10.0,South,6.9,-,N/A,,Mostly Cloudy,190,2013-07-01 17:35:00
1:55 PM,79.0,70.3,75,29.95,10.0,South,8.1,-,N/A,,Overcast,180,2013-07-01 17:55:00
2:15 PM,79.2,70.3,74,29.95,10.0,South,8.1,-,N/A,,Overcast,170,2013-07-01 18:15:00
2:35 PM,78.8,69.8,74,29.95,10.0,SSW,6.9,-,N/A,,Overcast,200,2013-07-01 18:35:00
2:55 PM,79.3,68.5,69,29.95,10.0,South,8.1,-,N/A,,Overcast,190,2013-07-01 18:55:00
3:15 PM,78.8,69.8,74,29.95,10.0,SSE,5.8,-,N/A,,Overcast,160,2013-07-01 19:15:00
3:35 PM,79.0,69.4,72,29.95,10.0,SSE,4.6,-,N/A,Rain,Light Rain,160,2013-07-01 19:35:00
3:55 PM,78.6,70.2,75,29.94,10.0,SE,4.6,-,N/A,Rain,Light Rain,140,2013-07-01 19:55:00
4:15 PM,77.4,71.1,81,29.95,5.0,SE,10.4,-,0.03,Rain,Heavy Rain,140,2013-07-01 20:15:00
4:35 PM,75.4,71.6,88,29.95,10.0,South,3.5,-,0.06,,Overcast,170,2013-07-01 20:35:00
4:55 PM,75.6,71.8,88,29.95,5.0,WSW,3.5,-,0.12,Rain,Heavy Rain,250,2013-07-01 20:55:00
5:15 PM,76.3,72.0,86,29.95,10.0,SSE,8.1,-,0.02,,Overcast,150,2013-07-01 21:15:00
5:35 PM,77.2,72.5,85,29.95,10.0,South,5.8,-,0.02,,Mostly Cloudy,170,2013-07-01 21:35:00
5:55 PM,77.4,72.7,85,29.95,10.0,SSE,5.8,-,0.02,,Mostly Cloudy,150,2013-07-01 21:55:00
6:15 PM,77.7,72.1,83,29.95,10.0,SE,11.5,-,N/A,,Mostly Cloudy,140,2013-07-01 22:15:00
6:35 PM,77.0,71.8,84,29.95,10.0,SE,8.1,-,N/A,,Overcast,140,2013-07-01 22:35:00
6:55 PM,76.5,71.8,85,29.96,10.0,SSE,6.9,-,N/A,,Mostly Cloudy,160,2013-07-01 22:55:00
7:15 PM,76.3,71.6,85,29.97,10.0,SSE,5.8,-,N/A,,Mostly Cloudy,160,2013-07-01 23:15:00
7:35 PM,76.1,70.7,83,29.97,10.0,SSE,8.1,16.1,N/A,,Mostly Cloudy,160,2013-07-01 23:35:00
7:55 PM,75.4,70.3,84,29.98,10.0,SSE,8.1,-,N/A,,Mostly Cloudy,150,2013-07-01 23:55:00
8:15 PM,75.2,70.3,85,29.99,10.0,South,6.9,-,N/A,,Mostly Cloudy,170,2013-07-02 00:15:00
8:35 PM,74.7,70.3,86,29.98,10.0,South,6.9,-,N/A,,Mostly Cloudy,170,2013-07-02 00:35:00
8:55 PM,74.5,70.3,87,29.98,10.0,SSE,4.6,-,N/A,,Overcast,160,2013-07-02 00:55:00
9:15 PM,74.5,70.3,87,29.98,10.0,South,5.8,-,N/A,,Overcast,170,2013-07-02 01:15:00
9:35 PM,74.3,70.3,87,29.99,10.0,South,5.8,-,N/A,,Overcast,170,2013-07-02 01:35:00
9:55 PM,73.9,70.2,88,30.00,10.0,South,6.9,-,N/A,,Mostly Cloudy,170,2013-07-02 01:55:00
10:15 PM,73.8,70.3,89,30.01,10.0,South,5.8,-,N/A,,Scattered Clouds,170,2013-07-02 02:15:00
10:35 PM,73.8,70.3,89,30.01,10.0,SSE,5.8,-,N/A,,Scattered Clouds,160,2013-07-02 02:35:00
10:55 PM,73.8,70.3,89,30.01,10.0,SSE,5.8,-,N/A,,Overcast,160,2013-07-02 02:55:00
11:15 PM,73.8,70.7,90,30.00,10.0,SSE,4.6,-,N/A,,Overcast,150,2013-07-02 03:15:00
11:35 PM,73.6,70.5,90,30.01,10.0,South,6.9,-,N/A,,Scattered Clouds,180,2013-07-02 03:35:00
11:55 PM,73.8,70.7,90,30.01,10.0,South,6.9,-,N/A,,Mostly Cloudy,170,2013-07-02 03:55:00